Time;durP1;ratioP1;P1;durP2;ratioP2;P2;SDS_P1;SDS_P2;PMS_P1;PMS_P2;Temp;Humidity;BMP_temperature;BMP_pressure;BME280_temperature;BME280_humidity;BME280_pressure;Samples;Min_cycle;Max_cycle;Signal;HPM_P1;HPM_P2
2021/11/06 00:02:05;;;;;;;;;;;;;;;8.38;91.84;100741.47;1654361;85;20132;-89
2021/11/06 00:04:30;;;;;;;;;;;;;;;8.48;91.48;100742.39;1651978;85;20194;-88
2021/11/06 00:06:56;;;;;;;;;;;;;;;8.41;91.63;100739.91;1654970;85;20767;-87
2021/11/06 00:09:21;;;;;;;;;;;;;;;8.32;91.98;100740.66;1654119;85;20221;-90
2021/11/06 00:11:49;;;;;;;;;;;;;;;8.45;91.45;100746.59;1653360;85;21080;-87
2021/11/06 00:14:14;;;;;;;;;;;;;;;8.46;91.73;100746.95;1653611;85;20160;-91
2021/11/06 00:16:42;;;;;;;;;;;;;;;8.44;91.71;100748.89;1652686;85;20169;-90
2021/11/06 00:19:07;;;;;;;;;;;;;;;8.39;91.83;100744.44;1631333;85;20167;-89
2021/11/06 00:21:33;;;;;;;;;;;;;;;8.42;91.84;100745.50;1654032;85;20173;-89
2021/11/06 00:23:59;;;;;;;;;;;;;;;8.46;91.80;100743.01;1655333;85;21939;-90
2021/11/06 00:26:25;;;;;;;;;;;;;;;8.53;91.79;100742.86;1653617;85;20138;-88
2021/11/06 00:28:51;;;;;;;;;;;;;;;8.43;92.06;100749.81;1654832;85;20120;-92
2021/11/06 00:31:17;;;;;;;;;;;;;;;8.43;92.44;100741.91;1654044;85;20139;-89
2021/11/06 00:33:42;;;;;;;;;;;;;;;8.51;92.09;100749.20;1654578;85;20353;-90
2021/11/06 00:36:10;;;;;;;;;;;;;;;8.44;92.32;100754.16;1651667;85;21100;-86
2021/11/06 00:38:35;;;;;;;;;;;;;;;8.62;91.76;100745.19;1657811;85;20165;-90
2021/11/06 00:41:01;;;;;;;;;;;;;;;8.71;91.36;100750.17;1654334;85;20545;-88
2021/11/06 00:43:27;;;;;;;;;;;;;;;8.74;91.37;100748.59;1652456;85;21215;-90
2021/11/06 00:45:52;;;;;;;;;;;;;;;8.51;91.97;100764.51;1654572;85;20200;-89
2021/11/06 00:48:18;;;;;;;;;;;;;;;8.43;92.48;100761.20;1655542;85;21787;-91
2021/11/06 00:50:45;;;;;;;;;;;;;;;8.38;93.32;100761.21;1661900;85;20211;-89
2021/11/06 00:53:10;;;;;;;;;;;;;;;8.33;93.20;100762.05;1663508;84;20242;-86
2021/11/06 00:55:36;;;;;;;;;;;;;;;8.36;93.53;100760.02;1663744;84;20543;-88
2021/11/06 00:58:03;;;;;;;;;;;;;;;8.36;93.64;100763.11;1662940;85;20171;-90
2021/11/06 01:00:29;;;;;;;;;;;;;;;8.29;94.17;100763.28;1667695;84;21180;-87
2021/11/06 01:02:54;;;;;;;;;;;;;;;8.31;93.98;100760.03;1665507;85;20130;-88
2021/11/06 01:05:21;;;;;;;;;;;;;;;8.22;94.62;100765.59;1664337;84;20133;-86
2021/11/06 01:07:47;;;;;;;;;;;;;;;8.33;94.14;100755.02;1661226;85;20331;-89
2021/11/06 01:10:14;;;;;;;;;;;;;;;8.27;94.18;100757.66;1660469;84;20174;-86
2021/11/06 01:12:39;;;;;;;;;;;;;;;8.42;94.06;100762.61;1662549;84;21171;-86
2021/11/06 01:15:06;;;;;;;;;;;;;;;8.44;93.40;100754.98;1662527;84;20903;-88
2021/11/06 01:17:31;;;;;;;;;;;;;;;8.43;93.84;100760.34;1660809;85;20196;-88
2021/11/06 01:19:57;;;;;;;;;;;;;;;8.52;93.43;100758.78;1662667;84;20587;-87
2021/11/06 01:22:23;;;;;;;;;;;;;;;8.34;94.10;100764.55;1661214;84;20584;-87
2021/11/06 01:24:50;;;;;;;;;;;;;;;8.30;94.26;100767.56;1664507;85;21109;-88
2021/11/06 01:27:15;;;;;;;;;;;;;;;8.40;94.18;100768.48;1663971;84;20207;-89
2021/11/06 01:29:41;;;;;;;;;;;;;;;8.26;94.50;100787.58;1661892;84;20233;-87
2021/11/06 01:32:07;;;;;;;;;;;;;;;8.23;95.09;100777.77;1663629;85;20149;-89
2021/11/06 01:34:36;;;;;;;;;;;;;;;8.31;94.95;100772.70;1664476;84;20192;-88
2021/11/06 01:37:02;;;;;;;;;;;;;;;8.39;94.51;100776.02;1662275;84;21121;-88
2021/11/06 01:39:28;;;;;;;;;;;;;;;8.29;95.04;100775.95;1661084;84;20211;-88
2021/11/06 01:41:53;;;;;;;;;;;;;;;8.32;95.09;100778.82;1664477;84;20194;-86
2021/11/06 01:44:19;;;;;;;;;;;;;;;8.37;94.82;100781.90;1665948;84;20490;-87
2021/11/06 01:46:44;;;;;;;;;;;;;;;8.30;95.19;100775.45;1665114;84;20152;-86
2021/11/06 01:49:10;;;;;;;;;;;;;;;8.23;95.68;100797.04;1624768;86;21161;-86
2021/11/06 01:51:35;;;;;;;;;;;;;;;8.31;95.62;100782.40;1628813;86;20349;-87
2021/11/06 01:54:01;;;;;;;;;;;;;;;8.36;95.38;100788.97;1601615;88;20170;-86
2021/11/06 01:56:27;;;;;;;;;;;;;;;8.46;94.65;100781.17;1649649;85;20202;-86
2021/11/06 01:58:52;;;;;;;;;;;;;;;8.48;94.59;100786.31;1643736;85;20128;-86
2021/11/06 02:01:20;;;;;;;;;;;;;;;8.48;94.62;100780.55;1639439;86;21104;-86
2021/11/06 02:03:47;;;;;;;;;;;;;;;8.37;94.88;100791.11;1650700;85;20529;-85
2021/11/06 02:06:12;;;;;;;;;;;;;;;8.44;94.82;100781.80;1650456;85;20206;-86
2021/11/06 02:08:38;;;;;;;;;;;;;;;8.37;95.23;100795.05;1644688;85;20144;-85
2021/11/06 02:11:05;;;;;;;;;;;;;;;8.44;94.99;100794.95;1645957;85;20153;-85
2021/11/06 02:13:31;;;;;;;;;;;;;;;8.45;94.88;100784.75;1648263;85;21063;-86
2021/11/06 02:15:57;;;;;;;;;;;;;;;8.45;95.09;100790.02;1649285;85;20213;-87
2021/11/06 02:18:23;;;;;;;;;;;;;;;8.31;95.64;100795.56;1645373;84;20232;-87
2021/11/06 02:20:51;;;;;;;;;;;;;;;8.32;95.63;100799.87;1645162;86;21397;-87
2021/11/06 02:23:17;;;;;;;;;;;;;;;8.34;95.71;100797.94;1637917;85;20499;-86
2021/11/06 02:25:43;;;;;;;;;;;;;;;8.41;95.60;100808.33;1646128;85;21044;-86
2021/11/06 02:28:08;;;;;;;;;;;;;;;8.35;95.99;100800.45;1644149;85;20192;-88
2021/11/06 02:30:36;;;;;;;;;;;;;;;8.34;95.95;100808.47;1650113;85;20476;-87
2021/11/06 02:33:01;;;;;;;;;;;;;;;8.37;95.79;100812.98;1646269;85;20260;-86
2021/11/06 02:35:27;;;;;;;;;;;;;;;8.41;95.70;100803.89;1646317;85;20149;-89
2021/11/06 02:37:52;;;;;;;;;;;;;;;8.39;95.78;100791.35;1649037;85;21279;-87
2021/11/06 02:40:20;;;;;;;;;;;;;;;8.40;95.69;100798.75;1649907;85;20161;-87
2021/11/06 02:42:45;;;;;;;;;;;;;;;8.39;95.65;100795.76;1650513;85;20188;-87
2021/11/06 02:45:11;;;;;;;;;;;;;;;8.49;95.17;100791.45;1651735;86;20497;-87
2021/11/06 02:47:37;;;;;;;;;;;;;;;8.44;95.31;100793.64;1649493;85;20180;-87
2021/11/06 02:50:05;;;;;;;;;;;;;;;8.44;95.28;100794.45;1655925;85;22033;-87
2021/11/06 02:52:31;;;;;;;;;;;;;;;8.43;95.44;100795.41;1653424;85;20142;-87
2021/11/06 02:54:57;;;;;;;;;;;;;;;8.47;95.44;100797.79;1653654;85;20158;-85
2021/11/06 02:57:22;;;;;;;;;;;;;;;8.49;95.07;100791.45;1653011;85;20591;-86
2021/11/06 02:59:52;;;;;;;;;;;;;;;8.53;94.91;100795.51;1652465;85;20151;-86
2021/11/06 03:02:17;;;;;;;;;;;;;;;8.56;94.68;100798.34;1658130;85;21566;-87
2021/11/06 03:04:43;;;;;;;;;;;;;;;8.58;94.87;100794.64;1657539;85;20151;-86
2021/11/06 03:07:08;;;;;;;;;;;;;;;8.52;94.98;100799.09;1656108;85;20149;-87
2021/11/06 03:09:38;;;;;;;;;;;;;;;8.63;94.60;100798.20;1653635;85;20146;-86
2021/11/06 03:12:03;;;;;;;;;;;;;;;8.57;94.71;100796.91;1657321;85;20177;-86
2021/11/06 03:14:30;;;;;;;;;;;;;;;8.67;94.68;100801.41;1655689;85;21258;-86
2021/11/06 03:16:57;;;;;;;;;;;;;;;8.66;94.88;100799.76;1656693;85;20194;-86
2021/11/06 03:19:25;;;;;;;;;;;;;;;8.65;94.79;100806.80;1657179;85;20172;-86
2021/11/06 03:21:50;;;;;;;;;;;;;;;8.68;94.91;100810.98;1657149;85;20154;-86
2021/11/06 03:24:16;;;;;;;;;;;;;;;8.71;94.75;100805.47;1657081;85;20150;-86
2021/11/06 03:26:41;;;;;;;;;;;;;;;8.84;94.16;100812.70;1655641;85;21102;-87
2021/11/06 03:29:07;;;;;;;;;;;;;;;8.88;93.58;100808.83;1658960;85;20546;-86
2021/11/06 03:31:32;;;;;;;;;;;;;;;8.73;93.96;100812.75;1657244;85;20142;-84
2021/11/06 03:33:58;;;;;;;;;;;;;;;8.82;93.33;100800.62;1654789;85;20178;-85
2021/11/06 03:36:23;;;;;;;;;;;;;;;8.89;93.13;100809.20;1656440;85;20159;-86
2021/11/06 03:38:49;;;;;;;;;;;;;;;8.85;93.04;100812.22;1654293;85;21240;-85
2021/11/06 03:41:15;;;;;;;;;;;;;;;8.76;92.83;100820.39;1661697;85;20226;-86
2021/11/06 03:43:40;;;;;;;;;;;;;;;8.75;92.87;100817.42;1659806;85;20498;-88
2021/11/06 03:46:06;;;;;;;;;;;;;;;8.68;92.88;100825.47;1661468;85;20138;-86
2021/11/06 03:48:32;;;;;;;;;;;;;;;8.80;92.31;100828.40;1654600;85;20175;-87
2021/11/06 03:50:58;;;;;;;;;;;;;;;8.72;92.31;100817.68;1649722;85;22001;-87
2021/11/06 03:53:23;;;;;;;;;;;;;;;8.75;92.06;100826.15;1655478;85;20132;-87
2021/11/06 03:55:49;;;;;;;;;;;;;;;8.71;92.09;100821.27;1657193;85;20209;-87
2021/11/06 03:58:14;;;;;;;;;;;;;;;8.68;91.86;100832.05;1651432;85;20429;-88
2021/11/06 04:00:40;;;;;;;;;;;;;;;8.63;91.67;100843.79;1653506;85;20485;-87
2021/11/06 04:03:06;;;;;;;;;;;;;;;8.72;91.40;100822.95;1653113;85;21219;-87
2021/11/06 04:05:31;;;;;;;;;;;;;;;8.78;91.27;100817.17;1655193;85;20149;-86
2021/11/06 04:07:57;;;;;;;;;;;;;;;8.69;91.06;100820.08;1655733;85;20138;-87
2021/11/06 04:10:22;;;;;;;;;;;;;;;8.63;91.31;100820.09;1654654;85;20136;-86
2021/11/06 04:12:48;;;;;;;;;;;;;;;8.73;91.20;100814.06;1652542;85;20147;-87
2021/11/06 04:15:15;;;;;;;;;;;;;;;8.63;90.93;100812.19;1651838;85;20724;-87
2021/11/06 04:17:41;;;;;;;;;;;;;;;8.80;90.65;100811.28;1652828;85;20241;-87
2021/11/06 04:20:07;;;;;;;;;;;;;;;8.68;90.94;100814.44;1655068;85;20591;-87
2021/11/06 04:22:34;;;;;;;;;;;;;;;8.55;90.90;100837.50;1655284;85;20497;-86
2021/11/06 04:24:59;;;;;;;;;;;;;;;8.70;90.72;100820.91;1652424;85;20465;-86
2021/11/06 04:27:25;;;;;;;;;;;;;;;8.65;90.92;100823.09;1651168;85;21030;-87
2021/11/06 04:29:51;;;;;;;;;;;;;;;8.63;91.02;100814.83;1649334;85;20210;-86
2021/11/06 04:32:17;;;;;;;;;;;;;;;8.67;90.84;100838.27;1655605;85;20140;-87
2021/11/06 04:34:42;;;;;;;;;;;;;;;8.58;90.83;100819.65;1652024;85;20142;-87
2021/11/06 04:37:08;;;;;;;;;;;;;;;8.67;90.50;100823.79;1658498;85;20462;-85
2021/11/06 04:39:35;;;;;;;;;;;;;;;8.67;90.74;100814.57;1649313;85;20999;-86
2021/11/06 04:42:01;;;;;;;;;;;;;;;8.73;90.43;100824.59;1653246;85;20156;-87
2021/11/06 04:44:27;;;;;;;;;;;;;;;8.59;90.73;100809.48;1653173;85;20273;-86
2021/11/06 04:46:52;;;;;;;;;;;;;;;8.63;90.18;100835.06;1651885;85;20484;-85
2021/11/06 04:49:18;;;;;;;;;;;;;;;8.60;90.22;100824.30;1652512;85;20140;-87
2021/11/06 04:51:45;;;;;;;;;;;;;;;8.63;90.14;100833.25;1657409;85;21096;-88
2021/11/06 04:54:11;;;;;;;;;;;;;;;8.57;90.29;100845.61;1653343;85;20197;-88
2021/11/06 04:56:36;;;;;;;;;;;;;;;8.63;90.20;100827.98;1652770;85;20262;-87
2021/11/06 04:59:02;;;;;;;;;;;;;;;8.64;90.12;100843.33;1656861;85;20116;-86
2021/11/06 05:01:28;;;;;;;;;;;;;;;8.68;89.71;100837.31;1645912;85;20502;-88
2021/11/06 05:03:54;;;;;;;;;;;;;;;8.63;89.84;100843.79;1649915;85;21139;-89
2021/11/06 05:06:19;;;;;;;;;;;;;;;8.66;89.79;100830.03;1654552;85;20466;-85
2021/11/06 05:08:45;;;;;;;;;;;;;;;8.57;89.85;100835.56;1658320;85;20171;-86
2021/11/06 05:11:10;;;;;;;;;;;;;;;8.69;89.67;100820.56;1654837;85;20175;-86
2021/11/06 05:13:36;;;;;;;;;;;;;;;8.55;89.55;100840.95;1655131;85;20625;-86
2021/11/06 05:16:02;;;;;;;;;;;;;;;8.57;89.82;100852.19;1661071;85;21804;-86
2021/11/06 05:18:27;;;;;;;;;;;;;;;8.59;89.63;100823.96;1648694;85;20164;-85
2021/11/06 05:20:53;;;;;;;;;;;;;;;8.56;89.28;100830.80;1651380;85;20155;-84
2021/11/06 05:23:19;;;;;;;;;;;;;;;8.52;89.74;100835.95;1652115;85;20137;-87
2021/11/06 05:25:45;;;;;;;;;;;;;;;8.67;89.28;100829.05;1652606;85;20214;-86
2021/11/06 05:28:11;;;;;;;;;;;;;;;8.44;90.06;100841.02;1656483;85;21104;-83
2021/11/06 05:30:37;;;;;;;;;;;;;;;8.43;90.04;100844.56;1653831;85;20119;-82
2021/11/06 05:33:03;;;;;;;;;;;;;;;8.44;89.73;100852.36;1657947;85;20181;-85
2021/11/06 05:35:28;;;;;;;;;;;;;;;8.50;89.72;100845.78;1652063;85;20134;-85
2021/11/06 05:37:54;;;;;;;;;;;;;;;8.56;89.36;100842.64;1656246;85;20510;-85
2021/11/06 05:40:19;;;;;;;;;;;;;;;8.45;89.57;100849.23;1654507;85;21789;-85
2021/11/06 05:42:45;;;;;;;;;;;;;;;8.40;89.59;100848.27;1649855;85;20142;-84
2021/11/06 05:45:10;;;;;;;;;;;;;;;8.41;89.54;100845.17;1655197;85;20127;-85
2021/11/06 05:47:36;;;;;;;;;;;;;;;8.48;89.38;100852.94;1661275;85;20632;-84
2021/11/06 05:50:04;;;;;;;;;;;;;;;8.52;89.20;100851.73;1648518;85;20266;-84
2021/11/06 05:52:29;;;;;;;;;;;;;;;8.59;88.86;100858.19;1644468;85;21151;-84
2021/11/06 05:54:55;;;;;;;;;;;;;;;8.65;88.43;100858.63;1640660;86;20133;-84
2021/11/06 05:57:21;;;;;;;;;;;;;;;8.62;88.71;100857.94;1648246;85;20680;-84
2021/11/06 05:59:47;;;;;;;;;;;;;;;8.62;88.47;100860.56;1647927;85;20716;-84
2021/11/06 06:02:12;;;;;;;;;;;;;;;8.65;88.42;100863.90;1646885;85;20172;-85
2021/11/06 06:04:38;;;;;;;;;;;;;;;8.52;88.92;100866.70;1646227;85;21086;-85
2021/11/06 06:07:04;;;;;;;;;;;;;;;8.69;88.44;100866.65;1640911;85;20547;-85
2021/11/06 06:09:30;;;;;;;;;;;;;;;8.69;88.35;100870.59;1647496;86;20197;-85
2021/11/06 06:11:55;;;;;;;;;;;;;;;8.61;88.38;100874.69;1642152;85;20505;-85
2021/11/06 06:14:21;;;;;;;;;;;;;;;8.58;88.69;100874.11;1649194;85;20190;-85
2021/11/06 06:16:47;;;;;;;;;;;;;;;8.60;88.77;100871.69;1645723;86;21046;-85
2021/11/06 06:19:12;;;;;;;;;;;;;;;8.49;89.42;100873.05;1644760;85;20510;-85
2021/11/06 06:21:38;;;;;;;;;;;;;;;8.50;89.44;100889.20;1640682;85;20179;-84
2021/11/06 06:24:04;;;;;;;;;;;;;;;8.47;89.90;100874.98;1644971;85;20160;-84
2021/11/06 06:26:29;;;;;;;;;;;;;;;8.58;89.44;100880.20;1645857;86;20190;-84
2021/11/06 06:28:55;;;;;;;;;;;;;;;8.58;89.58;100880.20;1641413;85;21096;-85
2021/11/06 06:31:20;;;;;;;;;;;;;;;8.51;89.95;100888.23;1644274;86;21280;-85
2021/11/06 06:33:46;;;;;;;;;;;;;;;8.54;89.93;100899.83;1645480;85;20149;-84
2021/11/06 06:36:11;;;;;;;;;;;;;;;8.55;89.91;100878.30;1645002;85;20141;-85
2021/11/06 06:38:37;;;;;;;;;;;;;;;8.54;90.32;100877.94;1643882;85;20490;-84
2021/11/06 06:41:03;;;;;;;;;;;;;;;8.63;90.10;100887.23;1642438;85;21396;-84
2021/11/06 06:43:28;;;;;;;;;;;;;;;8.68;89.72;100882.91;1645111;85;20170;-85
2021/11/06 06:45:54;;;;;;;;;;;;;;;8.67;89.60;100889.16;1654221;85;20107;-85
2021/11/06 06:48:20;;;;;;;;;;;;;;;8.66;90.02;100887.96;1640804;86;20240;-84
2021/11/06 06:50:49;;;;;;;;;;;;;;;8.68;90.40;100896.07;1644939;85;20149;-85
2021/11/06 06:53:16;;;;;;;;;;;;;;;8.65;90.38;100886.28;1632305;86;21126;-84
2021/11/06 06:55:42;;;;;;;;;;;;;;;8.72;90.35;100897.99;1633085;86;20194;-84
2021/11/06 06:58:07;;;;;;;;;;;;;;;8.57;90.58;100896.12;1632503;86;20149;-84
2021/11/06 07:00:33;;;;;;;;;;;;;;;8.52;91.21;100909.66;1636061;86;20123;-84
2021/11/06 07:02:59;;;;;;;;;;;;;;;8.61;91.27;100912.86;1633931;86;20156;-84
2021/11/06 07:05:24;;;;;;;;;;;;;;;8.63;91.13;100910.09;1636218;86;20559;-84
2021/11/06 07:07:52;;;;;;;;;;;;;;;8.57;91.83;100901.38;1626847;86;21024;-85
2021/11/06 07:10:17;;;;;;;;;;;;;;;8.78;91.18;100909.34;1633926;86;20132;-84
2021/11/06 07:12:43;;;;;;;;;;;;;;;8.75;91.16;100909.59;1635660;86;20114;-85
2021/11/06 07:15:09;;;;;;;;;;;;;;;8.73;91.45;100912.34;1631844;86;20603;-85
2021/11/06 07:17:34;;;;;;;;;;;;;;;8.84;90.90;100916.73;1637932;86;21960;-85
2021/11/06 07:20:00;;;;;;;;;;;;;;;8.83;91.09;100925.59;1639721;86;20186;-85
2021/11/06 07:22:25;;;;;;;;;;;;;;;8.79;91.31;100924.16;1629973;87;20181;-86
2021/11/06 07:24:51;;;;;;;;;;;;;;;8.86;90.96;100938.51;1637166;86;20517;-85
2021/11/06 07:27:17;;;;;;;;;;;;;;;8.81;91.43;100922.26;1631456;86;20157;-85
2021/11/06 07:29:42;;;;;;;;;;;;;;;9.00;90.28;100918.11;1639014;86;21108;-85
2021/11/06 07:32:08;;;;;;;;;;;;;;;9.02;90.24;100929.34;1632794;86;20488;-83
2021/11/06 07:34:34;;;;;;;;;;;;;;;9.07;89.93;100931.11;1635292;86;20208;-83
2021/11/06 07:36:59;;;;;;;;;;;;;;;9.16;89.44;100929.86;1638198;86;20143;-84
2021/11/06 07:39:26;;;;;;;;;;;;;;;9.26;88.91;100919.41;1636554;85;20138;-84
2021/11/06 07:41:53;;;;;;;;;;;;;;;9.27;88.59;100918.42;1635351;86;21206;-84
2021/11/06 07:44:19;;;;;;;;;;;;;;;9.24;88.54;100923.95;1634018;86;20180;-85
2021/11/06 07:46:45;;;;;;;;;;;;;;;9.26;88.52;100929.95;1634466;86;20135;-86
2021/11/06 07:49:10;;;;;;;;;;;;;;;9.22;88.51;100923.25;1634208;86;20185;-83
2021/11/06 07:51:36;;;;;;;;;;;;;;;9.23;88.27;100932.84;1634022;85;20155;-84
2021/11/06 07:54:01;;;;;;;;;;;;;;;9.40;87.46;100928.79;1643272;86;21101;-85
2021/11/06 07:56:27;;;;;;;;;;;;;;;9.24;87.79;100923.95;1643988;86;20801;-84
2021/11/06 07:58:53;;;;;;;;;;;;;;;9.29;87.25;100933.64;1641691;86;20147;-84
2021/11/06 08:01:20;;;;;;;;;;;;;;;9.40;86.55;100938.48;1639101;86;20141;-83
2021/11/06 08:03:46;;;;;;;;;;;;;;;9.42;86.03;100926.02;1634517;85;20183;-85
2021/11/06 08:06:12;;;;;;;;;;;;;;;9.45;85.83;100944.22;1637082;85;21018;-85
2021/11/06 08:08:39;;;;;;;;;;;;;;;9.56;85.55;100930.95;1640380;85;20522;-85
2021/11/06 08:11:04;;;;;;;;;;;;;;;9.65;85.49;100928.86;1635606;85;20205;-86
2021/11/06 08:13:32;;;;;;;;;;;;;;;9.57;84.86;100923.41;1642891;86;20427;-85
2021/11/06 08:15:57;;;;;;;;;;;;;;;9.55;85.15;100925.81;1634069;86;20179;-85
2021/11/06 08:18:23;;;;;;;;;;;;;;;9.77;84.36;100928.30;1640103;86;21085;-85
2021/11/06 08:20:49;;;;;;;;;;;;;;;9.75;83.76;100942.09;1637671;84;20151;-85
2021/11/06 08:23:14;;;;;;;;;;;;;;;9.80;83.92;100936.42;1637308;85;20192;-85
2021/11/06 08:25:40;;;;;;;;;;;;;;;9.88;83.54;100943.17;1640260;86;20139;-84
2021/11/06 08:28:06;;;;;;;;;;;;;;;9.95;83.32;100944.33;1644125;85;20466;-85
2021/11/06 08:30:31;;;;;;;;;;;;;;;10.04;82.45;100942.22;1641127;86;21265;-84
2021/11/06 08:32:57;;;;;;;;;;;;;;;10.12;81.94;100942.05;1638131;85;20450;-84
2021/11/06 08:35:26;;;;;;;;;;;;;;;10.09;81.93;100944.95;1644135;86;20133;-83
2021/11/06 08:37:50;;;;;;;;;;;;;;;10.05;81.65;100945.22;1636904;85;20151;-82
2021/11/06 08:40:16;;;;;;;;;;;;;;;9.92;82.40;100944.59;1642946;86;20216;-83
2021/11/06 08:42:42;;;;;;;;;;;;;;;9.95;82.10;100978.63;1636887;84;21311;-84
2021/11/06 08:45:09;;;;;;;;;;;;;;;10.00;81.95;100955.31;1637284;85;20551;-84
2021/11/06 08:47:35;;;;;;;;;;;;;;;10.15;81.76;100958.94;1644520;86;20149;-85
2021/11/06 08:50:04;;;;;;;;;;;;;;;10.18;81.39;100958.67;1644277;85;20185;-86
2021/11/06 08:52:32;;;;;;;;;;;;;;;10.28;81.31;100956.88;1632908;86;20466;-85
2021/11/06 08:54:57;;;;;;;;;;;;;;;10.45;80.95;100955.92;1630919;85;20975;-86
2021/11/06 08:57:24;;;;;;;;;;;;;;;10.31;80.77;101003.30;1630186;87;20157;-86
2021/11/06 08:59:53;;;;;;;;;;;;;;;10.21;80.58;100979.52;1635899;86;20443;-86
2021/11/06 09:02:17;;;;;;;;;;;;;;;10.21;81.00;100965.00;1637628;86;20168;-86
2021/11/06 09:04:44;;;;;;;;;;;;;;;10.34;80.76;100974.85;1636180;86;20214;-84
2021/11/06 09:07:10;;;;;;;;;;;;;;;10.34;80.79;100969.57;1632777;86;21059;-86
2021/11/06 09:09:36;;;;;;;;;;;;;;;10.48;80.41;100967.53;1634908;86;20260;-84
2021/11/06 09:12:04;;;;;;;;;;;;;;;10.43;80.92;100979.00;1634069;87;20134;-85
2021/11/06 09:14:29;;;;;;;;;;;;;;;10.49;80.57;100975.81;1632531;86;20164;-84
2021/11/06 09:16:54;;;;;;;;;;;;;;;10.52;80.43;100968.95;1636623;86;20205;-84
2021/11/06 09:19:20;;;;;;;;;;;;;;;10.41;80.92;100969.39;1637688;86;21068;-84
2021/11/06 09:21:46;;;;;;;;;;;;;;;10.60;80.65;100961.17;1635180;86;20168;-84
2021/11/06 09:24:12;;;;;;;;;;;;;;;10.61;80.31;100956.22;1631398;86;20189;-85
2021/11/06 09:26:40;;;;;;;;;;;;;;;10.71;80.21;100958.39;1635436;86;20237;-85
2021/11/06 09:29:07;;;;;;;;;;;;;;;10.55;80.67;100963.36;1634529;86;20541;-85
2021/11/06 09:31:32;;;;;;;;;;;;;;;10.50;80.89;100977.47;1638951;86;21363;-85
2021/11/06 09:33:58;;;;;;;;;;;;;;;10.38;81.37;100979.41;1637336;86;21159;-84
2021/11/06 09:36:24;;;;;;;;;;;;;;;10.41;81.67;100972.03;1634359;86;20159;-84
2021/11/06 09:38:49;;;;;;;;;;;;;;;10.38;81.74;100980.22;1636370;86;20149;-85
2021/11/06 09:41:17;;;;;;;;;;;;;;;10.35;81.84;100972.57;1638437;86;20382;-84
2021/11/06 09:43:42;;;;;;;;;;;;;;;10.41;81.71;100966.75;1634795;86;21948;-86
2021/11/06 09:46:11;;;;;;;;;;;;;;;10.35;81.93;101001.61;1633460;86;20158;-85
2021/11/06 09:48:37;;;;;;;;;;;;;;;10.20;82.63;100987.08;1636795;86;20191;-85
2021/11/06 09:51:03;;;;;;;;;;;;;;;10.28;82.53;100968.75;1635544;86;20186;-85
2021/11/06 09:53:30;;;;;;;;;;;;;;;10.17;82.94;100968.86;1625607;86;20148;-86
2021/11/06 09:55:56;;;;;;;;;;;;;;;10.25;82.81;100962.42;1633178;86;21110;-83
2021/11/06 09:58:21;;;;;;;;;;;;;;;10.09;83.47;100976.62;1628690;86;20858;-86
2021/11/06 10:00:47;;;;;;;;;;;;;;;10.08;83.72;100984.17;1626437;86;20244;-85
2021/11/06 10:03:13;;;;;;;;;;;;;;;10.18;83.66;100970.55;1628144;86;20245;-85
2021/11/06 10:05:51;;;;;;;;;;;;;;;10.21;83.89;100972.92;1628419;86;20143;-83
2021/11/06 10:08:22;;;;;;;;;;;;;;;10.24;83.58;100970.02;1631502;86;21165;-83
2021/11/06 10:10:48;;;;;;;;;;;;;;;10.25;83.62;100976.94;1629483;86;20178;-84
2021/11/06 10:13:13;;;;;;;;;;;;;;;10.12;84.37;100959.20;1630872;86;20210;-84
2021/11/06 10:15:44;;;;;;;;;;;;;;;10.10;84.56;100975.63;1615615;86;20165;-84
2021/11/06 10:18:20;;;;;;;;;;;;;;;9.99;85.17;100953.66;1634441;86;20174;-83
2021/11/06 10:20:49;;;;;;;;;;;;;;;9.97;85.37;100971.41;1628328;86;20982;-82
2021/11/06 10:23:14;;;;;;;;;;;;;;;9.96;85.36;100963.63;1623154;86;20191;-83
2021/11/06 10:25:40;;;;;;;;;;;;;;;10.00;85.28;100961.09;1629536;86;21371;-84
2021/11/06 10:28:12;;;;;;;;;;;;;;;9.96;85.71;100953.07;1631969;86;20183;-83
2021/11/06 10:30:41;;;;;;;;;;;;;;;10.00;85.88;100973.78;1627944;86;20240;-83
2021/11/06 10:33:17;;;;;;;;;;;;;;;9.99;85.78;100969.50;1628315;86;21157;-84
2021/11/06 10:35:57;;;;;;;;;;;;;;;9.99;85.64;100958.09;1608406;87;39638;-83
2021/11/06 10:38:21;;;;;;;;;;;;;;;10.08;85.54;100957.29;1625350;86;20170;-83
2021/11/06 10:40:55;;;;;;;;;;;;;;;10.08;85.68;100969.66;1629727;86;20155;-83
2021/11/06 10:43:22;;;;;;;;;;;;;;;10.05;85.64;100965.01;1624732;86;20189;-83
2021/11/06 10:45:49;;;;;;;;;;;;;;;10.08;85.83;100957.29;1624844;86;21180;-85
2021/11/06 10:48:19;;;;;;;;;;;;;;;10.00;86.18;100961.09;1628901;86;20208;-84
2021/11/06 10:50:58;;;;;;;;;;;;;;;9.99;86.30;100993.70;1628738;86;20194;-85
2021/11/06 10:53:50;;;;;;;;;;;;;;;9.87;86.79;100964.78;1642298;85;20181;-84
2021/11/06 10:56:21;;;;;;;;;;;;;;;9.87;87.00;100973.19;1642453;85;20185;-82
2021/11/06 10:58:49;;;;;;;;;;;;;;;9.79;87.49;100968.56;1646896;85;21273;-84
2021/11/06 11:01:18;;;;;;;;;;;;;;;9.77;87.85;100973.61;1647826;86;20212;-83
2021/11/06 11:03:44;;;;;;;;;;;;;;;9.75;87.76;100974.23;1646110;85;20157;-85
2021/11/06 11:06:18;;;;;;;;;;;;;;;9.85;87.44;100972.45;1644982;85;20623;-84
2021/11/06 11:08:48;;;;;;;;;;;;;;;10.04;87.17;100960.69;1642359;85;20182;-83
2021/11/06 11:11:18;;;;;;;;;;;;;;;9.80;87.66;100987.85;1643179;85;22020;-83
2021/11/06 11:13:55;;;;;;;;;;;;;;;9.89;87.27;100962.83;1638737;85;20186;-83
2021/11/06 11:16:22;;;;;;;;;;;;;;;9.89;87.19;100958.87;1653236;85;20192;-82
2021/11/06 11:18:50;;;;;;;;;;;;;;;9.82;87.41;100966.13;1641422;85;20201;-82
2021/11/06 11:21:20;;;;;;;;;;;;;;;9.86;87.25;100955.67;1645294;85;20193;-83
2021/11/06 11:24:08;;;;;;;;;;;;;;;9.91;87.37;100953.47;1645920;85;21082;-82
2021/11/06 11:26:36;;;;;;;;;;;;;;;9.94;87.26;100954.52;1650165;85;20206;-82
2021/11/06 11:29:03;;;;;;;;;;;;;;;9.86;87.57;100959.63;1645064;85;20186;-82
2021/11/06 11:31:28;;;;;;;;;;;;;;;9.92;87.10;100939.81;1645786;84;20906;-82
2021/11/06 11:33:55;;;;;;;;;;;;;;;10.04;86.88;100938.26;1641790;85;20126;-82
2021/11/06 11:36:22;;;;;;;;;;;;;;;10.10;86.59;100941.33;1648697;86;21145;-81
2021/11/06 11:38:48;;;;;;;;;;;;;;;10.07;86.82;100941.13;1642362;85;20167;-84
2021/11/06 11:41:41;;;;;;;;;;;;;;;10.02;86.90;100937.56;1649726;85;20172;-83
2021/11/06 11:44:28;;;;;;;;;;;;;;;10.06;87.03;100932.84;1645459;85;20129;-83
2021/11/06 11:47:00;;;;;;;;;;;;;;;10.08;87.07;100930.08;1648743;85;20244;-83
2021/11/06 11:49:29;;;;;;;;;;;;;;;10.09;86.87;100929.12;1643105;85;21110;-85
2021/11/06 11:51:54;;;;;;;;;;;;;;;10.04;87.19;100932.98;1639061;86;21118;-83
2021/11/06 11:54:20;;;;;;;;;;;;;;;10.15;86.82;100925.94;1646503;85;20159;-83
2021/11/06 11:56:46;;;;;;;;;;;;;;;10.34;86.27;100915.45;1647269;85;20463;-84
2021/11/06 11:59:15;;;;;;;;;;;;;;;10.27;85.93;100921.37;1648372;85;20239;-84
2021/11/06 12:01:41;;;;;;;;;;;;;;;10.31;85.68;100915.69;1642692;84;21307;-82
2021/11/06 12:04:17;;;;;;;;;;;;;;;10.50;85.33;100907.02;1642580;85;20342;-83
2021/11/06 12:06:44;;;;;;;;;;;;;;;10.64;84.78;100908.40;1644323;85;20208;-80
2021/11/06 12:09:17;;;;;;;;;;;;;;;10.65;84.74;100902.16;1648309;85;20192;-79
2021/11/06 12:11:52;;;;;;;;;;;;;;;10.86;83.94;100902.50;1650819;85;20179;-76
2021/11/06 12:14:29;;;;;;;;;;;;;;;10.92;83.51;100900.63;1645460;85;21257;-78
2021/11/06 12:16:57;;;;;;;;;;;;;;;11.00;83.05;100903.42;1640999;85;20254;-82
2021/11/06 12:19:44;;;;;;;;;;;;;;;11.01;83.04;100903.75;1630469;86;20173;-78
2021/11/06 12:22:13;;;;;;;;;;;;;;;10.98;82.97;100904.02;1656721;85;20192;-78
2021/11/06 12:24:39;;;;;;;;;;;;;;;11.06;82.82;100896.25;1647634;85;20217;-79
2021/11/06 12:27:07;;;;;;;;;;;;;;;11.08;82.53;100900.90;1649030;85;21097;-79
2021/11/06 12:29:35;;;;;;;;;;;;;;;11.29;81.89;100902.53;1646478;85;20579;-79
2021/11/06 12:32:09;;;;;;;;;;;;;;;11.26;81.80;100908.09;1646159;85;20176;-79
2021/11/06 12:34:46;;;;;;;;;;;;;;;11.32;81.49;100900.92;1644639;85;20189;-79
2021/11/06 12:37:32;;;;;;;;;;;;;;;11.39;81.40;100912.61;1644095;85;20146;-80
2021/11/06 12:39:58;;;;;;;;;;;;;;;11.36;81.18;100911.57;1642678;85;21198;-79
2021/11/06 12:42:25;;;;;;;;;;;;;;;11.27;81.35;100907.14;1641930;85;20164;-78